Time;durP1;ratioP1;P1;durP2;ratioP2;P2;SDS_P1;SDS_P2;PMS_P1;PMS_P2;Temp;Humidity;BMP_temperature;BMP_pressure;BME280_temperature;BME280_humidity;BME280_pressure;Samples;Min_cycle;Max_cycle;Signal;HPM_P1;HPM_P2
2022/01/06 00:01:42;;;;;;;8.45;1.58;;;2.10;69.60;;;0.45;74.06;95627.66;4929413;28;20046;-67
2022/01/06 00:04:08;;;;;;;5.90;1.77;;;2.10;69.40;;;0.46;74.17;95629.34;4932791;29;20130;-67
2022/01/06 00:06:38;;;;;;;4.72;1.33;;;2.20;69.40;;;0.46;74.42;95634.50;4910005;29;20047;-68
2022/01/06 00:09:05;;;;;;;7.07;1.50;;;2.20;69.70;;;0.47;74.19;95638.72;4945081;29;20518;-67
2022/01/06 00:11:31;;;;;;;4.95;1.20;;;2.30;69.50;;;0.49;74.51;95643.75;4917095;29;20046;-67
2022/01/06 00:14:07;;;;;;;6.28;1.50;;;2.30;69.80;;;0.48;74.36;95648.13;4929919;29;20122;-68
2022/01/06 00:16:47;;;;;;;4.97;1.55;;;2.20;70.30;;;0.47;74.98;95645.66;4950969;28;20036;-68
2022/01/06 00:24:41;;;;;;;4.97;1.33;;;2.10;72.20;;;0.43;75.62;95639.94;4927575;29;20058;-67
2022/01/06 00:27:07;;;;;;;9.65;1.80;;;2.20;72.50;;;0.41;76.03;95647.03;4927082;29;20031;-68
2022/01/06 00:29:33;;;;;;;4.43;1.45;;;2.10;72.60;;;0.38;76.89;95641.31;4945664;28;20047;-68
2022/01/06 00:31:59;;;;;;;11.07;3.58;;;2.00;73.40;;;0.35;77.05;95637.22;4948908;28;20086;-67
2022/01/06 00:34:24;;;;;;;12.35;2.47;;;1.90;74.30;;;0.34;77.11;95635.59;4915466;29;20518;-67
2022/01/06 00:36:50;;;;;;;8.13;1.85;;;2.00;74.60;;;0.33;78.03;95641.72;4948477;28;20039;-67
2022/01/06 00:39:16;;;;;;;7.65;1.83;;;2.00;74.60;;;0.34;77.96;95638.19;4947838;28;20039;-68
2022/01/06 00:41:41;;;;;;;9.25;1.98;;;2.10;74.60;;;0.34;78.03;95640.78;4911768;28;20075;-67
2022/01/06 00:44:07;;;;;;;6.75;1.58;;;2.00;75.00;;;0.29;78.71;95635.19;4930870;29;20043;-68
2022/01/06 00:46:33;;;;;;;8.40;1.50;;;2.00;75.50;;;0.27;79.10;95629.34;4930606;29;20409;-68
2022/01/06 00:48:59;;;;;;;5.93;1.95;;;2.00;75.50;;;0.24;79.27;95648.53;4914678;29;20051;-67
2022/01/06 00:51:24;;;;;;;6.93;2.10;;;1.90;76.10;;;0.22;79.69;95641.84;4950231;28;20042;-67
2022/01/06 00:53:50;;;;;;;9.68;2.00;;;1.90;76.20;;;0.20;79.45;95648.94;4927959;28;20502;-67
2022/01/06 00:56:16;;;;;;;7.22;1.90;;;1.80;76.50;;;0.18;79.86;95636.13;4921829;29;20071;-67
2022/01/06 00:58:41;;;;;;;10.10;2.38;;;1.80;76.40;;;0.18;79.87;95637.91;4927218;29;20501;-67
2022/01/06 01:01:07;;;;;;;6.57;1.67;;;1.90;76.60;;;0.17;79.89;95646.63;4931016;29;20034;-67
2022/01/06 01:03:33;;;;;;;7.43;2.08;;;1.90;76.50;;;0.15;80.60;95645.94;4945068;28;20055;-67
2022/01/06 01:05:59;;;;;;;4.22;1.90;;;1.80;76.50;;;0.13;80.05;95653.03;4928997;29;20054;-67
2022/01/06 01:08:25;;;;;;;6.85;1.60;;;1.80;76.50;;;0.11;80.46;95649.75;4945995;28;20317;-68
2022/01/06 01:10:53;;;;;;;7.78;1.75;;;1.80;76.60;;;0.09;81.00;95652.47;4894433;29;20035;-67
2022/01/06 01:13:27;;;;;;;6.70;1.65;;;1.80;76.70;;;0.09;81.03;95652.47;4945040;28;20031;-67
2022/01/06 01:15:56;;;;;;;6.07;1.90;;;1.80;76.50;;;0.11;80.56;95660.91;4912590;28;20097;-67
2022/01/06 01:18:22;;;;;;;5.88;1.83;;;2.00;76.20;;;0.13;80.93;95658.19;4923607;28;20043;-67
2022/01/06 01:20:51;;;;;;;11.13;1.95;;;1.80;76.00;;;0.13;80.56;95665.94;4946475;29;20075;-67
2022/01/06 01:23:17;;;;;;;6.60;1.90;;;1.90;76.00;;;0.13;80.29;95663.38;4936531;29;20380;-67
2022/01/06 01:25:43;;;;;;;12.52;2.22;;;1.80;76.00;;;0.14;81.11;95665.00;4899340;28;20040;-67
2022/01/06 01:28:10;;;;;;;9.77;1.80;;;1.90;75.70;;;0.13;80.63;95666.78;4932298;29;20086;-67
2022/01/06 01:30:51;;;;;;;8.57;2.20;;;1.90;75.60;;;0.17;80.17;95669.91;4915222;29;20066;-68
2022/01/06 01:33:17;;;;;;;7.40;2.25;;;1.90;75.30;;;0.16;80.54;95673.44;4949991;29;20043;-65
2022/01/06 01:35:43;;;;;;;9.07;1.83;;;1.90;75.50;;;0.15;80.52;95676.97;4947306;28;20089;-65
2022/01/06 01:38:09;;;;;;;25.25;11.15;;;1.90;76.00;;;0.14;80.82;95670.16;4917736;29;20027;-65
2022/01/06 01:40:35;;;;;;;11.90;6.75;;;1.80;76.50;;;0.14;81.29;95665.81;4929757;29;20035;-65
2022/01/06 01:43:00;;;;;;;9.13;2.13;;;1.80;77.00;;;0.16;81.00;95673.44;4932756;29;20042;-64
2022/01/06 01:45:32;;;;;;;7.20;2.15;;;1.90;76.60;;;0.16;81.01;95683.78;4924644;29;20131;-65
2022/01/06 01:48:00;;;;;;;7.35;1.77;;;1.90;76.90;;;0.17;81.43;95675.06;4929663;28;20063;-64
2022/01/06 01:50:25;;;;;;;7.47;2.50;;;1.90;76.90;;;0.14;81.40;95678.75;4904597;29;20031;-65
2022/01/06 01:52:53;;;;;;;10.75;1.80;;;1.90;77.00;;;0.17;81.89;95672.47;4950791;28;20039;-65
2022/01/06 01:55:26;;;;;;;7.20;1.92;;;2.00;76.80;;;0.18;82.58;95677.50;4935053;29;20396;-64
2022/01/06 01:57:52;;;;;;;5.68;1.58;;;2.00;76.80;;;0.19;81.65;95683.50;4933170;28;20038;-65
2022/01/06 02:00:20;;;;;;;8.85;1.73;;;1.90;77.00;;;0.20;82.01;95679.97;4933961;29;20056;-65
2022/01/06 02:02:46;;;;;;;6.00;2.30;;;1.90;77.10;;;0.16;81.54;95678.59;4935054;29;20142;-65
2022/01/06 02:05:12;;;;;;;7.32;1.80;;;1.80;77.30;;;0.14;82.40;95680.50;4948544;29;20047;-65
2022/01/06 02:07:39;;;;;;;7.03;1.80;;;1.80;77.40;;;0.09;82.25;95693.84;4914274;28;20036;-65
2022/01/06 02:10:05;;;;;;;7.90;1.88;;;1.70;77.80;;;0.06;82.15;95691.53;4933552;29;20047;-65
2022/01/06 02:12:34;;;;;;;5.22;2.00;;;1.70;77.90;;;0.06;82.48;95690.72;4935864;29;20039;-66
2022/01/06 02:15:00;;;;;;;6.57;2.00;;;1.80;78.00;;;0.07;82.51;95684.59;4948576;28;20043;-66
2022/01/06 02:17:26;;;;;;;6.00;2.00;;;1.90;77.70;;;0.08;83.10;95691.41;4946757;28;20051;-67
2022/01/06 02:20:02;;;;;;;5.55;1.88;;;1.80;77.70;;;0.06;83.25;95685.56;4913626;28;20299;-65
2022/01/06 02:22:28;;;;;;;7.85;2.33;;;1.70;77.60;;;0.05;82.99;95682.16;4913232;29;20046;-65
2022/01/06 02:24:54;;;;;;;9.32;2.47;;;1.70;77.70;;;0.05;82.96;95691.69;4930841;29;20122;-65
2022/01/06 02:27:20;;;;;;;8.40;2.10;;;1.80;77.70;;;0.05;82.93;95683.91;4912377;29;20028;-65
2022/01/06 02:29:50;;;;;;;8.38;1.90;;;1.80;77.70;;;0.08;82.85;95692.22;4900094;29;20104;-65
2022/01/06 02:32:16;;;;;;;5.78;2.22;;;1.80;77.60;;;0.07;83.01;95694.94;4932943;28;20042;-65
2022/01/06 02:34:45;;;;;;;4.47;1.90;;;1.80;77.60;;;0.07;83.55;95688.00;4923811;29;20036;-66
2022/01/06 02:37:12;;;;;;;5.03;2.00;;;1.90;77.30;;;0.07;82.73;95694.94;4909568;29;20132;-66
2022/01/06 02:39:38;;;;;;;6.60;2.00;;;1.90;77.50;;;0.09;83.30;95687.88;4897289;28;20051;-65
2022/01/06 02:42:05;;;;;;;10.55;2.03;;;1.80;77.60;;;0.08;83.58;95694.00;4942968;28;20114;-66
2022/01/06 02:44:30;;;;;;;6.20;2.13;;;1.80;77.50;;;0.08;83.09;95691.41;4933663;29;20146;-66
2022/01/06 02:46:56;;;;;;;8.57;2.03;;;1.80;77.80;;;0.09;83.33;95698.22;4898041;29;20448;-65
2022/01/06 02:49:22;;;;;;;6.55;2.15;;;1.80;77.80;;;0.06;83.52;95709.63;4933541;29;20031;-65
2022/01/06 02:51:48;;;;;;;4.78;2.08;;;1.70;78.00;;;0.06;83.32;95703.66;4925699;28;20122;-65
2022/01/06 02:54:14;;;;;;;7.90;2.38;;;1.70;78.10;;;0.06;83.66;95709.63;4928641;29;20039;-65
2022/01/06 02:56:42;;;;;;;7.40;2.00;;;1.80;78.30;;;0.07;83.65;95716.44;4933778;29;20035;-65
2022/01/06 02:59:08;;;;;;;9.35;1.90;;;1.80;78.40;;;0.08;84.40;95717.25;4934818;29;20035;-65
2022/01/06 03:01:40;;;;;;;6.93;2.55;;;1.80;78.60;;;0.08;84.28;95725.03;4949218;28;20047;-66
2022/01/06 03:04:07;;;;;;;6.40;1.98;;;1.80;78.30;;;0.09;83.96;95721.47;4947313;28;20039;-65
2022/01/06 03:06:32;;;;;;;9.18;2.20;;;1.90;78.20;;;0.08;83.75;95718.06;4919300;29;20127;-65
2022/01/06 03:08:58;;;;;;;9.65;2.42;;;1.90;78.10;;;0.07;84.17;95716.44;4934267;29;20529;-65
2022/01/06 03:11:27;;;;;;;8.43;2.30;;;1.80;78.20;;;0.08;83.97;95717.25;4930091;29;20066;-65
2022/01/06 03:13:53;;;;;;;7.32;2.35;;;1.90;78.40;;;0.09;84.40;95724.88;4934585;28;20205;-65
2022/01/06 03:16:19;;;;;;;6.55;2.17;;;1.90;78.30;;;0.09;84.44;95730.06;4914011;29;20134;-65
2022/01/06 03:18:45;;;;;;;7.32;2.67;;;1.80;78.70;;;0.08;84.53;95727.59;4931077;28;20032;-66
2022/01/06 03:21:10;;;;;;;7.28;2.47;;;1.80;79.00;;;0.10;84.45;95731.69;4940802;29;20039;-65
2022/01/06 03:23:36;;;;;;;7.88;2.22;;;1.90;79.20;;;0.09;85.08;95734.41;4931833;28;20467;-65
2022/01/06 03:26:02;;;;;;;6.90;2.60;;;1.80;79.00;;;0.10;84.74;95741.22;4939207;29;20110;-65
2022/01/06 03:28:28;;;;;;;8.85;2.45;;;1.80;79.10;;;0.11;85.58;95748.03;4943984;29;20133;-65
2022/01/06 03:30:53;;;;;;;8.43;2.38;;;1.90;79.70;;;0.12;85.35;95744.47;4943077;28;20051;-65
2022/01/06 03:33:19;;;;;;;11.20;2.67;;;1.90;79.50;;;0.14;85.53;95753.75;4934622;29;20038;-66
2022/01/06 03:35:45;;;;;;;11.32;2.47;;;2.00;79.80;;;0.16;85.42;95748.44;4933000;28;20027;-66
2022/01/06 03:38:11;;;;;;;11.48;2.65;;;2.00;79.80;;;0.15;85.10;95754.56;4915043;29;20051;-65
2022/01/06 03:40:37;;;;;;;9.25;2.42;;;1.90;79.80;;;0.15;85.70;95744.22;4950158;28;20034;-68
2022/01/06 03:43:02;;;;;;;5.68;2.08;;;2.00;80.10;;;0.16;86.22;95751.03;4938751;29;20083;-68
2022/01/06 03:45:28;;;;;;;9.38;2.45;;;2.00;80.20;;;0.14;86.00;95743.41;4947427;29;20050;-68
2022/01/06 03:47:55;;;;;;;8.00;2.55;;;2.00;80.00;;;0.16;86.47;95744.06;4933794;28;20055;-68
2022/01/06 03:50:21;;;;;;;6.90;2.28;;;2.10;79.70;;;0.15;86.21;95739.03;4946828;28;20040;-68
2022/01/06 03:52:46;;;;;;;6.63;2.40;;;2.00;79.80;;;0.13;85.95;95740.94;4924865;29;20123;-68
2022/01/06 03:55:15;;;;;;;10.32;2.17;;;1.90;79.80;;;0.14;86.94;95747.75;4934038;29;20031;-68
2022/01/06 03:57:41;;;;;;;9.80;2.70;;;1.90;80.10;;;0.14;86.26;95748.56;4931784;28;20114;-67
2022/01/06 04:00:10;;;;;;;12.73;2.70;;;1.90;80.30;;;0.14;86.33;95758.09;4926030;29;20488;-68
2022/01/06 04:02:36;;;;;;;10.57;2.85;;;1.90;80.20;;;0.10;86.55;95746.38;4934114;29;20035;-68
2022/01/06 04:05:03;;;;;;;8.77;2.40;;;1.80;80.60;;;0.07;86.96;95747.47;4942076;29;20032;-68
2022/01/06 04:07:29;;;;;;;9.30;2.50;;;1.80;80.80;;;0.07;87.19;95757.00;4943877;29;20126;-68
2022/01/06 04:09:55;;;;;;;5.63;2.30;;;1.80;80.80;;;0.06;87.15;95750.19;4930871;28;20138;-67
2022/01/06 04:12:20;;;;;;;9.07;2.65;;;1.80;80.40;;;0.07;86.90;95757.00;4950148;28;20035;-68
2022/01/06 04:14:46;;;;;;;5.68;2.55;;;1.90;80.50;;;0.08;86.96;95756.06;4919759;29;20051;-68
2022/01/06 04:17:12;;;;;;;7.88;1.92;;;1.90;80.30;;;0.09;87.04;95765.44;4932868;29;20047;-68
2022/01/06 04:19:37;;;;;;;7.88;2.75;;;1.90;80.30;;;0.09;87.39;95762.84;4932186;28;20511;-68
2022/01/06 04:22:05;;;;;;;8.48;2.78;;;1.90;80.50;;;0.09;87.45;95765.44;4906599;29;20040;-68
2022/01/06 04:24:31;;;;;;;10.50;2.60;;;1.80;80.50;;;0.05;87.18;95769.25;4913598;29;20126;-68
2022/01/06 04:26:56;;;;;;;7.50;2.80;;;1.70;80.60;;;0.05;87.43;95772.66;4932560;29;20163;-70
2022/01/06 04:29:22;;;;;;;8.05;2.92;;;1.70;80.60;;;0.07;87.48;95782.84;4932961;29;20040;-68
2022/01/06 04:31:48;;;;;;;7.55;2.47;;;1.80;80.50;;;0.05;87.69;95777.00;4898170;28;20566;-68
2022/01/06 04:34:13;;;;;;;7.28;3.00;;;1.80;80.50;;;0.05;87.30;95774.41;4950803;28;20035;-68
2022/01/06 04:36:46;;;;;;;7.32;2.55;;;1.80;80.80;;;0.06;87.51;95781.22;4928299;29;20109;-68
2022/01/06 04:39:12;;;;;;;7.53;3.17;;;1.80;80.80;;;0.06;87.26;95782.03;4916955;29;20043;-69
2022/01/06 04:41:37;;;;;;;34.15;19.33;;;1.80;80.70;;;0.03;87.87;95781.50;4932231;28;20448;-68
2022/01/06 04:44:03;;;;;;;9.93;3.33;;;1.70;81.70;;;0.04;87.76;95793.47;4947224;29;20039;-69
2022/01/06 04:46:29;;;;;;;9.18;3.08;;;1.80;81.80;;;0.03;88.36;95787.47;4946142;29;20383;-68
2022/01/06 04:48:55;;;;;;;11.88;3.38;;;1.80;81.70;;;0.02;88.07;95791.03;4932106;29;20046;-68
2022/01/06 04:51:20;;;;;;;7.13;2.50;;;1.80;81.80;;;-0.02;88.12;95805.94;4929242;28;20058;-68
2022/01/06 04:53:46;;;;;;;8.13;2.95;;;1.70;81.90;;;-0.02;88.66;95798.19;4947369;28;20051;-68
2022/01/06 04:56:12;;;;;;;7.63;3.10;;;1.70;81.80;;;-0.01;88.36;95802.41;4914336;29;20069;-68
2022/01/06 04:58:38;;;;;;;7.20;2.95;;;1.80;81.90;;;0.02;89.18;95810.88;4908920;29;20122;-68
2022/01/06 05:01:03;;;;;;;13.23;4.10;;;1.80;82.00;;;0.03;88.65;95812.53;4925683;29;20063;-68
2022/01/06 05:03:29;;;;;;;11.40;4.85;;;1.90;82.10;;;-0.01;89.59;95802.41;4932551;28;20059;-68
2022/01/06 05:05:55;;;;;;;7.30;3.08;;;1.80;82.60;;;-0.01;89.79;95812.75;4931980;28;20098;-68
2022/01/06 05:08:21;;;;;;;10.65;4.63;;;1.80;82.70;;;-0.02;89.83;95808.53;4937736;28;20031;-68
2022/01/06 05:10:46;;;;;;;10.07;4.03;;;1.80;83.00;;;-0.05;89.82;95795.88;4944850;28;20109;-68
2022/01/06 05:13:12;;;;;;;9.80;3.92;;;1.70;83.00;;;-0.04;89.72;95809.63;4929962;29;20055;-68
2022/01/06 05:15:38;;;;;;;9.93;3.50;;;1.70;82.90;;;-0.07;90.48;95804.72;4926474;28;20095;-68
2022/01/06 05:18:04;;;;;;;6.70;3.20;;;1.80;82.90;;;-0.07;90.34;95813.28;4940527;28;20130;-68
2022/01/06 05:20:30;;;;;;;8.05;3.22;;;1.80;82.80;;;-0.06;90.05;95814.91;4926420;29;20039;-68
2022/01/06 05:22:57;;;;;;;5.40;3.38;;;1.80;82.80;;;-0.04;90.38;95818.19;4927843;29;20443;-68
2022/01/06 05:25:26;;;;;;;5.25;2.65;;;1.90;82.50;;;-0.07;90.10;95813.28;4942041;28;20042;-68
2022/01/06 05:27:53;;;;;;;7.63;4.35;;;1.70;82.70;;;-0.08;90.34;95834.91;4932542;28;20090;-68
2022/01/06 05:30:18;;;;;;;12.18;5.25;;;1.70;83.30;;;-0.08;90.71;95832.34;4923411;29;20030;-68
2022/01/06 05:32:44;;;;;;;10.02;4.00;;;1.80;83.40;;;-0.07;90.93;95838.31;4918148;29;20035;-68
2022/01/06 05:35:10;;;;;;;5.93;2.88;;;1.70;83.20;;;-0.06;91.16;95830.44;4941098;28;20155;-68
2022/01/06 05:37:36;;;;;;;5.57;3.20;;;1.80;82.90;;;-0.05;90.66;95831.25;4945653;28;20130;-68
2022/01/06 05:40:03;;;;;;;7.22;3.70;;;1.80;82.80;;;-0.07;90.87;95828.78;4928046;29;20043;-67
2022/01/06 05:42:28;;;;;;;9.07;3.97;;;1.70;82.90;;;-0.09;90.93;95835.88;4932907;28;20049;-67
2022/01/06 05:44:54;;;;;;;8.55;3.20;;;1.60;83.20;;;-0.09;90.86;95842.81;4928399;29;20064;-68
2022/01/06 05:47:20;;;;;;;5.53;2.95;;;1.70;83.30;;;-0.09;91.13;95841.03;4930949;29;20035;-68
2022/01/06 05:49:45;;;;;;;6.35;2.88;;;1.70;82.70;;;-0.08;90.85;95847.84;4944307;28;20498;-68
2022/01/06 05:52:11;;;;;;;8.90;2.80;;;1.70;82.60;;;-0.08;90.82;95841.84;4945820;29;20551;-67
2022/01/06 05:54:37;;;;;;;7.32;3.22;;;1.70;82.50;;;-0.08;90.45;95847.03;4929665;29;20031;-68
2022/01/06 05:57:03;;;;;;;6.85;2.92;;;1.70;82.40;;;-0.08;90.37;95853.00;4927860;29;20519;-71
2022/01/06 05:59:31;;;;;;;6.90;3.80;;;1.80;82.50;;;-0.06;90.91;95850.28;4915867;29;20043;-69
2022/01/06 06:01:58;;;;;;;8.45;3.33;;;1.70;82.60;;;-0.07;90.77;95854.66;4918483;28;20510;-68
2022/01/06 06:04:24;;;;;;;10.63;2.67;;;1.80;82.30;;;-0.04;90.32;95850.97;4945655;28;20077;-69
2022/01/06 06:06:49;;;;;;;6.97;2.58;;;1.80;82.00;;;-0.06;90.10;95856.28;4928987;29;20039;-69
2022/01/06 06:09:15;;;;;;;4.53;2.78;;;1.80;82.00;;;-0.03;90.02;95858.59;4948428;29;20102;-68
2022/01/06 06:11:41;;;;;;;8.90;2.90;;;1.80;82.10;;;-0.02;90.59;95857.66;4913300;28;20131;-67
2022/01/06 06:14:06;;;;;;;6.30;2.60;;;1.90;82.00;;;0.02;89.85;95858.25;4944711;29;20071;-67
2022/01/06 06:16:32;;;;;;;8.85;2.72;;;1.90;82.00;;;0.03;90.37;95854.72;4908774;29;20040;-68
2022/01/06 06:18:58;;;;;;;5.22;2.50;;;1.80;81.90;;;0.01;90.34;95855.78;4913941;29;20040;-68
2022/01/06 06:21:24;;;;;;;5.90;2.53;;;1.80;81.80;;;0.01;90.66;95871.31;4929617;29;20036;-68
2022/01/06 06:23:50;;;;;;;8.02;2.80;;;1.80;81.90;;;-0.01;90.06;95874.81;4945088;28;20090;-68
2022/01/06 06:26:16;;;;;;;5.55;2.10;;;1.80;82.20;;;-0.03;90.25;95874.13;4930191;29;20032;-68
2022/01/06 06:28:41;;;;;;;4.93;2.95;;;1.70;82.30;;;-0.01;90.59;95872.22;4915012;29;20040;-67
2022/01/06 06:31:07;;;;;;;3.53;2.25;;;1.80;82.20;;;-0.01;90.17;95879.97;4932168;29;20040;-67
2022/01/06 06:33:33;;;;;;;4.55;2.65;;;1.70;81.90;;;-0.02;90.54;95883.50;4944790;28;20167;-67
2022/01/06 06:35:58;;;;;;;7.38;2.30;;;1.80;82.30;;;0.01;90.34;95881.66;4944018;28;20098;-67
2022/01/06 06:38:24;;;;;;;7.20;2.95;;;1.80;82.00;;;-0.03;90.82;95881.88;4917665;29;20036;-67
2022/01/06 06:40:50;;;;;;;8.65;2.90;;;1.70;83.20;;;-0.02;91.20;95891.28;4917969;29;20608;-68
2022/01/06 06:43:16;;;;;;;4.95;2.97;;;1.70;83.70;;;-0.07;91.49;95896.00;4920077;29;20461;-68
2022/01/06 06:45:42;;;;;;;5.63;3.22;;;1.70;84.10;;;-0.07;91.45;95893.44;4935293;28;20240;-67
2022/01/06 06:48:07;;;;;;;5.32;2.63;;;1.70;83.80;;;-0.06;91.45;95891.66;4933083;29;20055;-67
2022/01/06 06:50:33;;;;;;;7.43;2.63;;;1.80;83.60;;;-0.09;91.42;95897.91;4920661;29;20039;-68
2022/01/06 06:52:59;;;;;;;3.78;2.78;;;1.70;83.80;;;-0.10;91.77;95901.44;4932297;29;20047;-68
2022/01/06 06:55:25;;;;;;;6.72;2.83;;;1.70;84.00;;;-0.10;92.01;95909.19;4947424;28;20047;-68
2022/01/06 06:57:51;;;;;;;3.78;2.38;;;1.70;84.00;;;-0.12;92.33;95908.50;4919946;28;20051;-68
2022/01/06 07:00:17;;;;;;;4.43;2.28;;;1.60;83.80;;;-0.15;92.53;95903.59;4935513;29;20031;-68
2022/01/06 07:02:42;;;;;;;6.10;2.60;;;1.60;84.00;;;-0.16;91.85;95907.13;4952103;28;20074;-68
2022/01/06 07:05:08;;;;;;;4.22;2.22;;;1.60;83.60;;;-0.17;92.04;95909.84;4934765;29;20070;-68
2022/01/06 07:07:34;;;;;;;6.20;2.35;;;1.70;83.60;;;-0.17;91.97;95915.84;4919573;29;20043;-68
2022/01/06 07:10:00;;;;;;;5.18;2.50;;;1.60;83.30;;;-0.19;91.76;95922.91;4919073;29;20603;-69
2022/01/06 07:12:26;;;;;;;6.80;2.75;;;1.60;82.90;;;-0.18;91.97;95923.72;4931845;29;20059;-69
2022/01/06 07:14:52;;;;;;;6.47;2.47;;;1.60;83.10;;;-0.18;91.64;95924.53;4917882;29;20035;-69
2022/01/06 07:17:17;;;;;;;5.63;2.22;;;1.70;82.90;;;-0.19;91.72;95928.06;4935457;28;20066;-69
2022/01/06 07:19:43;;;;;;;4.50;2.65;;;1.60;82.60;;;-0.20;91.74;95931.59;4918745;28;20087;-70
2022/01/06 07:22:09;;;;;;;3.53;2.05;;;1.60;82.90;;;-0.21;91.50;95937.72;4951157;28;20146;-69
2022/01/06 07:24:36;;;;;;;4.43;2.17;;;1.60;82.50;;;-0.21;91.21;95939.50;4937502;28;20067;-70
2022/01/06 07:27:03;;;;;;;3.60;2.22;;;1.50;82.10;;;-0.23;90.87;95942.16;4921370;28;20039;-70
2022/01/06 07:29:29;;;;;;;4.90;2.47;;;1.50;82.50;;;-0.26;91.32;95939.84;4902203;29;20066;-70
2022/01/06 07:31:55;;;;;;;5.97;2.33;;;1.50;82.50;;;-0.29;90.84;95953.03;4950587;28;20047;-71
2022/01/06 07:34:20;;;;;;;4.68;2.33;;;1.40;82.80;;;-0.30;90.85;95959.13;4903081;29;20408;-72
2022/01/06 07:36:46;;;;;;;4.30;2.03;;;1.40;82.90;;;-0.29;91.12;95953.03;4919641;29;20554;-70
2022/01/06 07:39:12;;;;;;;7.30;3.60;;;1.50;83.10;;;-0.29;91.27;95953.03;4932221;28;20063;-72
2022/01/06 07:41:38;;;;;;;5.75;3.13;;;1.50;82.90;;;-0.28;91.62;95956.44;4920269;28;20061;-70
2022/01/06 07:44:07;;;;;;;6.90;2.72;;;1.60;82.90;;;-0.31;91.84;95955.72;4952269;28;20077;-71
2022/01/06 07:46:34;;;;;;;4.32;2.20;;;1.50;82.80;;;-0.30;91.34;95953.97;4919705;28;20035;-70
2022/01/06 07:49:00;;;;;;;3.97;2.53;;;1.50;82.70;;;-0.30;91.39;95959.13;4919263;29;20031;-69
2022/01/06 07:51:29;;;;;;;5.03;2.30;;;1.60;83.10;;;-0.29;91.71;95960.78;4919479;29;20043;-69
2022/01/06 07:53:55;;;;;;;5.65;2.60;;;1.70;82.50;;;-0.26;91.58;95957.94;4919109;28;20035;-68
2022/01/06 07:56:21;;;;;;;6.28;2.58;;;1.60;82.40;;;-0.23;91.65;95967.19;4934425;29;20043;-68
2022/01/06 07:58:46;;;;;;;5.95;2.20;;;1.60;82.40;;;-0.19;91.75;95968.63;4934861;29;20027;-69
2022/01/06 08:01:12;;;;;;;7.05;2.63;;;1.70;82.40;;;-0.14;91.78;95977.63;4946517;28;20115;-68
2022/01/06 08:03:38;;;;;;;5.70;2.35;;;1.90;81.60;;;-0.10;91.53;95984.16;4927547;28;20457;-69
2022/01/06 08:06:04;;;;;;;5.93;2.50;;;1.90;81.70;;;-0.04;91.63;95977.66;4946580;28;20035;-69
2022/01/06 08:08:29;;;;;;;4.57;2.50;;;2.00;81.30;;;0.03;91.05;95990.94;4933896;29;20046;-69
2022/01/06 08:10:55;;;;;;;4.45;2.38;;;2.20;80.90;;;0.13;91.00;95979.69;4931083;29;20085;-69
2022/01/06 08:13:21;;;;;;;2.45;1.75;;;2.40;80.30;;;0.21;90.82;95986.78;4944968;29;20039;-69
2022/01/06 08:15:46;;;;;;;5.18;2.42;;;2.30;80.00;;;0.24;90.54;95991.72;4914928;28;20256;-68
2022/01/06 08:18:12;;;;;;;5.57;2.45;;;2.20;80.10;;;0.26;90.47;95998.41;4927197;29;20035;-71
2022/01/06 08:20:38;;;;;;;5.05;2.20;;;2.20;80.10;;;0.26;90.08;95989.84;4934522;29;20597;-70
2022/01/06 08:23:05;;;;;;;3.95;2.35;;;2.10;79.70;;;0.28;90.06;95990.53;4918666;29;20039;-71
2022/01/06 08:25:31;;;;;;;4.10;2.17;;;2.20;80.10;;;0.27;89.72;95997.47;4921374;29;20043;-71
2022/01/06 08:27:56;;;;;;;70.63;38.40;;;2.10;79.80;;;0.29;89.86;95994.75;4911304;28;20050;-69
2022/01/06 08:30:22;;;;;;;12.90;6.47;;;2.20;79.90;;;0.30;89.62;95992.03;4952119;28;20130;-72
2022/01/06 08:32:48;;;;;;;5.18;2.88;;;2.20;79.60;;;0.34;89.84;96007.28;4944116;28;20118;-72
2022/01/06 08:35:14;;;;;;;8.80;4.32;;;2.30;79.50;;;0.39;89.49;96005.94;4930796;29;20039;-71
2022/01/06 08:37:39;;;;;;;7.43;4.32;;;2.40;80.00;;;0.44;90.17;96000.38;4899875;28;20105;-70
2022/01/06 08:40:06;;;;;;;5.93;2.92;;;2.40;79.90;;;0.47;89.43;96008.72;4911007;29;20044;-70
2022/01/06 08:42:32;;;;;;;5.47;2.97;;;2.50;79.50;;;0.52;89.27;96006.56;4930919;29;20123;-71
2022/01/06 08:44:58;;;;;;;16.70;8.95;;;2.60;79.00;;;0.58;89.81;96010.41;4913547;29;20050;-71
2022/01/06 08:47:23;;;;;;;13.90;7.95;;;2.80;79.00;;;0.68;89.93;96000.06;4933155;28;20130;-69
2022/01/06 08:49:49;;;;;;;6.20;3.72;;;3.10;78.30;;;0.79;89.32;96010.34;4929997;28;20035;-70
2022/01/06 08:52:15;;;;;;;6.18;2.97;;;3.10;77.00;;;0.85;89.08;95999.47;4932040;29;20087;-71
2022/01/06 08:54:41;;;;;;;8.50;3.90;;;3.20;77.00;;;0.93;88.68;96010.00;4924924;28;20070;-70
2022/01/06 08:57:06;;;;;;;6.82;3.67;;;3.20;76.50;;;1.01;88.33;96017.09;4940140;28;20114;-71
2022/01/06 08:59:32;;;;;;;5.45;3.00;;;3.40;76.00;;;1.03;87.98;96010.84;4925693;29;20043;-72
2022/01/06 09:01:58;;;;;;;4.03;2.45;;;3.30;76.00;;;1.09;87.95;96012.06;4907385;28;20040;-71
2022/01/06 09:04:23;;;;;;;4.65;1.90;;;3.40;75.70;;;1.11;87.57;96018.75;4939472;29;20081;-72
2022/01/06 09:06:50;;;;;;;7.53;2.25;;;3.40;75.90;;;1.15;88.11;96014.16;4965532;28;20070;-70
2022/01/06 09:09:16;;;;;;;3.65;2.38;;;3.40;76.00;;;1.20;87.48;96011.97;4932311;28;20039;-69
2022/01/06 09:11:42;;;;;;;5.30;2.50;;;3.50;75.40;;;1.18;87.76;96019.88;4916440;28;20078;-69
2022/01/06 09:14:08;;;;;;;4.10;2.28;;;3.30;75.80;;;1.25;87.87;96024.53;4923038;29;20475;-72
2022/01/06 09:16:34;;;;;;;3.42;2.08;;;3.60;75.30;;;1.33;87.09;96024.66;4917799;29;20152;-72
2022/01/06 09:18:59;;;;;;;6.75;2.40;;;3.80;75.10;;;1.44;87.33;96034.91;4925317;29;20070;-71
2022/01/06 09:21:25;;;;;;;4.35;2.30;;;3.90;74.40;;;1.53;86.67;96028.91;4968584;28;21526;-70
2022/01/06 09:23:51;;;;;;;4.35;1.98;;;4.00;73.90;;;1.62;86.81;96041.09;4942568;28;20047;-70
2022/01/06 09:26:18;;;;;;;6.07;2.60;;;4.20;73.50;;;1.74;86.35;96039.16;4913462;29;20034;-71
2022/01/06 09:28:44;;;;;;;4.80;2.40;;;4.40;72.70;;;1.93;86.32;96046.13;4915739;29;20561;-70
2022/01/06 09:31:09;;;;;;;6.03;2.30;;;4.70;71.80;;;2.13;86.14;96043.41;4922143;29;20035;-70
2022/01/06 09:33:35;;;;;;;6.30;2.58;;;5.10;70.80;;;2.37;85.61;96055.94;4945735;28;20044;-69
2022/01/06 09:36:01;;;;;;;4.68;2.45;;;5.40;69.30;;;2.55;85.45;96052.63;4928930;29;20393;-68
2022/01/06 09:38:27;;;;;;;4.43;2.20;;;5.40;69.10;;;2.65;84.86;96063.78;4900855;29;20777;-68
2022/01/06 09:40:52;;;;;;;3.97;2.00;;;5.20;69.50;;;2.85;85.01;96069.75;4932477;29;20031;-68
2022/01/06 09:43:26;;;;;;;5.90;2.20;;;5.90;68.50;;;2.96;82.76;96064.38;4947830;28;20090;-68
2022/01/06 09:45:52;;;;;;;4.53;2.20;;;5.50;67.90;;;3.04;83.63;96064.47;4928335;28;20048;-68
2022/01/06 09:48:21;;;;;;;8.07;4.72;;;5.60;68.60;;;3.13;82.52;96068.81;4934652;29;20086;-69
2022/01/06 09:50:47;;;;;;;11.77;6.85;;;5.60;69.00;;;3.22;83.16;96072.34;4932443;29;20035;-68
2022/01/06 09:53:13;;;;;;;11.88;6.60;;;5.70;69.50;;;3.31;83.05;96063.66;4916440;29;20478;-68
2022/01/06 09:55:40;;;;;;;10.88;6.82;;;5.70;69.20;;;3.35;82.44;96062.41;4947199;28;20345;-67
2022/01/06 09:58:06;;;;;;;5.47;2.28;;;5.70;68.20;;;3.32;81.71;96063.53;4916751;28;20035;-68
2022/01/06 10:00:33;;;;;;;6.60;2.10;;;5.40;68.50;;;3.31;81.72;96066.28;4916313;29;20125;-68
2022/01/06 10:03:02;;;;;;;4.65;2.42;;;5.40;69.10;;;3.28;80.78;96077.78;4915364;29;21484;-67
2022/01/06 10:05:41;;;;;;;6.13;2.85;;;5.40;69.10;;;3.23;80.17;96079.19;4907641;29;20040;-71
2022/01/06 10:08:08;;;;;;;4.38;2.67;;;5.20;69.40;;;3.16;80.79;96083.28;4931168;29;20032;-70
2022/01/06 10:10:35;;;;;;;5.88;2.65;;;4.90;70.40;;;3.06;80.98;96078.16;4926195;29;20036;-69
2022/01/06 10:13:06;;;;;;;6.57;3.20;;;4.80;71.20;;;3.01;81.23;96085.56;4940350;29;20093;-70
2022/01/06 10:15:32;;;;;;;5.25;3.17;;;4.70;71.20;;;2.91;80.89;96082.97;4946844;29;20044;-68
2022/01/06 10:17:58;;;;;;;5.32;3.03;;;4.60;71.80;;;2.82;80.70;96091.63;4917547;28;20082;-69
2022/01/06 10:20:27;;;;;;;5.32;2.97;;;4.60;72.20;;;2.75;81.03;96091.38;4933017;29;20043;-68
2022/01/06 10:22:57;;;;;;;8.43;4.97;;;4.50;72.00;;;2.63;81.14;96094.28;4934444;29;20036;-69
2022/01/06 10:25:25;;;;;;;6.20;3.30;;;4.20;73.10;;;2.56;81.17;96098.41;4951594;28;20058;-70
2022/01/06 10:27:56;;;;;;;6.63;3.95;;;4.20;73.10;;;2.49;81.52;96099.88;4951493;28;20035;-68
2022/01/06 10:30:29;;;;;;;4.13;2.65;;;4.20;72.70;;;2.42;81.62;96099.63;4950817;28;20039;-68
2022/01/06 10:32:59;;;;;;;8.80;2.80;;;4.10;73.10;;;2.37;81.72;96097.47;4951906;28;20027;-68